createdAt,value
2023-03-03T00:01:41.946Z,31.73
2023-03-03T00:04:10.174Z,29.73
2023-03-03T00:06:38.365Z,29.93
2023-03-03T00:09:06.726Z,29.33
2023-03-03T00:11:34.896Z,32.03
2023-03-03T00:14:03.275Z,31.50
2023-03-03T00:16:36.632Z,31.43
2023-03-03T00:19:15.324Z,31.03
2023-03-03T00:21:46.185Z,28.77
2023-03-03T00:24:21.247Z,28.87
2023-03-03T00:26:51.548Z,27.63
2023-03-03T00:29:32.036Z,28.80
2023-03-03T00:32:28.088Z,25.57
2023-03-03T00:35:04.395Z,27.00
2023-03-03T00:37:34.931Z,25.40
2023-03-03T00:40:25.259Z,24.47
2023-03-03T00:42:55.555Z,26.00
2023-03-03T00:45:41.504Z,27.17
2023-03-03T00:48:24.885Z,25.27
2023-03-03T00:50:56.103Z,23.23
2023-03-03T00:53:26.280Z,26.00
2023-03-03T00:55:55.352Z,27.07
2023-03-03T00:58:25.687Z,24.50
2023-03-03T01:00:56.857Z,21.13
2023-03-03T01:03:26.928Z,22.87
2023-03-03T01:05:56.760Z,24.90
2023-03-03T01:08:25.919Z,23.37
2023-03-03T01:10:57.153Z,24.70
2023-03-03T01:13:28.314Z,25.53
2023-03-03T01:15:56.739Z,24.37
2023-03-03T01:18:25.141Z,25.17
2023-03-03T01:20:53.560Z,24.40
2023-03-03T01:23:23.473Z,24.10
2023-03-03T01:25:51.844Z,23.20
2023-03-03T01:28:20.185Z,24.30
2023-03-03T01:30:48.728Z,24.77
2023-03-03T01:33:17.136Z,26.73
2023-03-03T01:35:46.151Z,24.73
2023-03-03T01:38:14.672Z,27.30
2023-03-03T01:40:44.453Z,27.10
2023-03-03T01:43:16.276Z,27.33
2023-03-03T01:46:36.405Z,26.63
2023-03-03T01:49:08.925Z,27.67
2023-03-03T01:51:41.314Z,30.40
2023-03-03T01:54:15.822Z,31.00
2023-03-03T01:56:45.891Z,31.50
2023-03-03T01:59:19.894Z,28.23
2023-03-03T02:01:49.500Z,30.37
2023-03-03T02:04:19.134Z,31.40
2023-03-03T02:06:51.910Z,28.93
2023-03-03T02:09:26.188Z,32.10
2023-03-03T02:12:00.850Z,28.07
2023-03-03T02:14:29.056Z,32.80
2023-03-03T02:16:57.400Z,30.77
2023-03-03T02:19:34.704Z,32.83
2023-03-03T02:22:03.868Z,33.87
2023-03-03T02:24:40.187Z,30.10
2023-03-03T02:27:10.197Z,31.70
2023-03-03T02:29:38.552Z,31.17
2023-03-03T02:32:07.110Z,33.13
2023-03-03T02:34:47.853Z,31.37
2023-03-03T02:37:16.446Z,31.67
2023-03-03T02:39:45.290Z,33.33
2023-03-03T02:42:19.765Z,31.73
2023-03-03T02:44:53.759Z,37.33
2023-03-03T02:47:22.059Z,39.43
2023-03-03T02:49:50.383Z,37.57
2023-03-03T02:52:19.193Z,33.03
2023-03-03T02:54:47.557Z,36.37
2023-03-03T02:57:17.310Z,35.83
2023-03-03T02:59:45.648Z,37.47
2023-03-03T03:02:13.966Z,32.03
2023-03-03T03:04:42.607Z,35.57
2023-03-03T03:07:11.900Z,35.20
2023-03-03T03:09:40.296Z,32.80
2023-03-03T03:12:08.876Z,33.97
2023-03-03T03:14:38.967Z,39.33
2023-03-03T03:17:07.225Z,34.00
2023-03-03T03:19:35.687Z,36.03
2023-03-03T03:22:04.028Z,35.93
2023-03-03T03:24:32.344Z,38.23
2023-03-03T03:27:00.794Z,38.40
2023-03-03T03:29:29.224Z,40.43
2023-03-03T03:31:59.078Z,40.70
2023-03-03T03:34:27.425Z,38.20
2023-03-03T03:36:55.880Z,38.13
2023-03-03T03:39:24.314Z,35.10
2023-03-03T03:41:52.810Z,43.80
2023-03-03T03:44:21.099Z,36.37
2023-03-03T03:46:49.959Z,39.23
2023-03-03T03:49:20.919Z,39.63
2023-03-03T03:51:49.474Z,42.17
2023-03-03T03:54:17.782Z,41.17
2023-03-03T03:56:46.183Z,38.30
2023-03-03T03:59:14.583Z,39.67
2023-03-03T04:01:42.992Z,38.33
2023-03-03T04:04:12.388Z,38.47
2023-03-03T04:06:42.282Z,38.53
2023-03-03T04:09:10.599Z,40.07
2023-03-03T04:11:39.019Z,39.67
2023-03-03T04:14:07.539Z,41.87
2023-03-03T04:16:35.872Z,38.30
2023-03-03T04:19:04.705Z,38.27
2023-03-03T04:21:33.152Z,37.37
2023-03-03T04:24:02.951Z,37.27
2023-03-03T04:26:32.399Z,39.20
2023-03-03T04:29:01.761Z,40.17
2023-03-03T04:31:30.030Z,36.10
2023-03-03T04:33:58.303Z,38.17
2023-03-03T04:36:26.902Z,36.03
2023-03-03T04:38:55.209Z,34.13
2023-03-03T04:41:25.014Z,33.73
2023-03-03T04:43:54.284Z,34.37
2023-03-03T04:46:22.565Z,32.43
2023-03-03T04:48:50.834Z,33.40
2023-03-03T04:51:19.056Z,30.90
2023-03-03T04:53:47.460Z,36.67
2023-03-03T04:56:15.886Z,39.47
2023-03-03T04:58:45.771Z,32.20
2023-03-03T05:01:15.530Z,31.70
2023-03-03T05:03:44.030Z,39.50
2023-03-03T05:06:12.244Z,31.00
2023-03-03T05:08:40.490Z,32.53
2023-03-03T05:11:08.591Z,29.77
2023-03-03T05:13:36.655Z,30.83
2023-03-03T05:16:06.664Z,36.30
2023-03-03T05:18:34.745Z,31.73
2023-03-03T05:21:02.838Z,32.87
2023-03-03T05:23:31.309Z,36.40
2023-03-03T05:25:59.335Z,31.77
2023-03-03T05:28:27.452Z,35.20
2023-03-03T05:30:55.482Z,37.17
2023-03-03T05:33:24.923Z,33.90
2023-03-03T05:35:55.698Z,32.77
2023-03-03T05:38:24.214Z,35.73
2023-03-03T05:40:52.439Z,31.93
2023-03-03T05:43:20.611Z,32.77
2023-03-03T05:45:48.641Z,32.83
2023-03-03T05:48:16.691Z,33.37
2023-03-03T05:50:46.183Z,30.50
2023-03-03T05:53:14.363Z,27.90
2023-03-03T05:55:42.422Z,28.67
2023-03-03T05:58:10.532Z,26.47
2023-03-03T06:00:38.651Z,30.27
2023-03-03T06:03:06.675Z,27.00
2023-03-03T06:05:34.785Z,28.27
2023-03-03T06:08:04.387Z,26.83
2023-03-03T06:10:32.439Z,31.00
2023-03-03T06:13:00.918Z,37.50
2023-03-03T06:15:29.114Z,30.67
2023-03-03T06:17:57.359Z,32.30
2023-03-03T06:20:25.474Z,31.53
2023-03-03T06:22:53.662Z,32.77
2023-03-03T06:25:23.373Z,30.13
2023-03-03T06:27:51.560Z,27.93
2023-03-03T06:30:20.058Z,31.57
2023-03-03T06:32:48.456Z,26.07
2023-03-03T06:35:18.339Z,25.60
2023-03-03T06:37:46.465Z,26.50
2023-03-03T06:40:15.337Z,23.83
2023-03-03T06:42:44.969Z,23.80
2023-03-03T06:45:13.766Z,25.00
2023-03-03T06:47:42.215Z,27.53
2023-03-03T06:50:12.655Z,26.17
2023-03-03T06:52:40.775Z,25.83
2023-03-03T06:55:14.764Z,27.23
2023-03-03T06:57:44.385Z,31.13
2023-03-03T07:00:18.330Z,28.27
2023-03-03T07:02:46.450Z,31.87
2023-03-03T07:05:18.122Z,37.50
2023-03-03T07:07:46.681Z,33.33
2023-03-03T07:10:23.243Z,25.47
2023-03-03T07:12:53.037Z,38.43
2023-03-03T07:15:25.086Z,29.73
2023-03-03T07:17:58.276Z,28.87
2023-03-03T07:20:33.607Z,27.03
2023-03-03T07:23:01.841Z,26.87
2023-03-03T07:25:33.677Z,29.47
2023-03-03T07:28:13.486Z,26.57
2023-03-03T07:30:43.317Z,29.23
2023-03-03T07:33:25.657Z,25.27
2023-03-03T07:35:56.626Z,28.33
2023-03-03T07:38:40.140Z,28.30
2023-03-03T07:41:15.647Z,24.37
2023-03-03T07:43:55.077Z,20.73
2023-03-03T07:46:42.724Z,24.70
2023-03-03T07:49:22.721Z,28.67
2023-03-03T07:51:55.080Z,19.67
2023-03-03T07:54:31.317Z,25.23
2023-03-03T07:57:03.268Z,22.27
2023-03-03T07:59:38.144Z,21.13
2023-03-03T08:02:18.029Z,22.03
2023-03-03T08:04:50.936Z,21.67
2023-03-03T08:07:20.869Z,44.70
2023-03-03T08:09:51.137Z,26.43
2023-03-03T08:12:41.998Z,22.93
2023-03-03T08:15:35.215Z,24.03
2023-03-03T08:18:05.380Z,23.57
2023-03-03T08:20:53.257Z,24.10
2023-03-03T08:23:22.808Z,26.60
2023-03-03T08:25:52.289Z,19.27
2023-03-03T08:28:21.114Z,21.70
2023-03-03T08:30:52.130Z,16.73
2023-03-03T08:33:21.284Z,18.37
2023-03-03T08:35:49.814Z,19.30
2023-03-03T08:38:19.625Z,20.93
2023-03-03T08:40:47.935Z,18.83
2023-03-03T08:43:17.424Z,18.97
2023-03-03T08:45:47.350Z,16.03
2023-03-03T08:48:17.357Z,15.50
2023-03-03T08:50:46.238Z,15.20
2023-03-03T08:53:15.384Z,14.67
2023-03-03T08:55:43.673Z,14.50
2023-03-03T08:58:11.908Z,14.10
2023-03-03T09:00:40.856Z,15.90
2023-03-03T09:03:09.441Z,12.63
2023-03-03T09:09:26.581Z,12.07
2023-03-03T09:11:59.302Z,12.50
2023-03-03T09:14:30.097Z,12.63
2023-03-03T09:16:58.839Z,12.67
2023-03-03T09:19:30.712Z,13.47
2023-03-03T09:22:13.005Z,14.13
2023-03-03T09:24:44.029Z,11.67
2023-03-03T09:27:20.444Z,13.00
2023-03-03T09:29:48.606Z,10.83
2023-03-03T09:32:34.803Z,12.93
2023-03-03T09:35:37.153Z,12.17
2023-03-03T09:38:21.735Z,34.10
2023-03-03T09:41:05.445Z,37.93
2023-03-03T09:43:42.015Z,20.97
2023-03-03T09:46:18.532Z,17.37
2023-03-03T09:48:59.224Z,12.93
2023-03-03T09:51:53.914Z,10.30
2023-03-03T09:54:44.192Z,12.07
2023-03-03T09:57:17.060Z,11.83
2023-03-03T09:59:58.498Z,11.07
2023-03-03T10:02:35.147Z,10.57
2023-03-03T10:05:35.107Z,10.90
2023-03-03T10:08:18.666Z,13.43
2023-03-03T10:11:02.987Z,12.10
2023-03-03T10:13:43.246Z,11.90
2023-03-03T10:16:23.743Z,12.80
2023-03-03T10:18:57.105Z,11.80
2023-03-03T10:21:28.542Z,14.27
2023-03-03T10:24:01.961Z,12.23
2023-03-03T10:27:05.454Z,13.17
2023-03-03T10:29:44.595Z,15.77
2023-03-03T10:32:31.477Z,11.70
2023-03-03T10:35:20.727Z,13.70
2023-03-03T10:37:57.574Z,12.03
2023-03-03T10:40:32.941Z,13.33
2023-03-03T10:43:29.722Z,14.03
2023-03-03T10:46:23.396Z,14.47
2023-03-03T10:49:14.774Z,16.63
2023-03-03T10:51:56.680Z,12.70
2023-03-03T10:54:41.110Z,16.23
2023-03-03T10:57:17.664Z,15.70
2023-03-03T11:00:00.981Z,18.47
2023-03-03T11:02:39.600Z,15.33
2023-03-03T11:05:31.482Z,14.77
2023-03-03T11:08:05.051Z,16.87
2023-03-03T11:10:48.232Z,18.70
2023-03-03T11:13:25.033Z,19.53
2023-03-03T11:16:14.880Z,19.70
2023-03-03T11:18:59.835Z,21.40
2023-03-03T11:21:34.216Z,20.37
2023-03-03T11:24:12.620Z,21.50
2023-03-03T11:27:01.192Z,21.33
2023-03-03T11:29:45.129Z,22.40
2023-03-03T11:32:24.772Z,21.30
2023-03-03T11:35:06.315Z,21.20
2023-03-03T11:37:44.022Z,21.83
2023-03-03T11:40:18.454Z,17.87
2023-03-03T11:43:01.432Z,19.30
2023-03-03T11:45:35.364Z,21.03
2023-03-03T11:48:13.956Z,20.43
2023-03-03T11:50:53.741Z,23.03
2023-03-03T11:53:43.940Z,23.67
2023-03-03T11:56:24.102Z,21.27
2023-03-03T11:59:04.182Z,19.50
2023-03-03T12:01:37.932Z,20.63
2023-03-03T12:04:11.734Z,20.17
2023-03-03T12:06:53.469Z,23.57
2023-03-03T12:09:34.264Z,23.87
2023-03-03T12:12:08.275Z,20.80
2023-03-03T12:14:58.214Z,22.53
2023-03-03T12:17:50.642Z,17.63
2023-03-03T12:20:26.821Z,22.23
2023-03-03T12:23:09.635Z,19.97
2023-03-03T12:25:41.833Z,17.23
2023-03-03T12:28:17.789Z,22.10
2023-03-03T12:31:18.088Z,22.53
2023-03-03T12:33:58.410Z,21.03
2023-03-03T12:36:51.261Z,18.90
2023-03-03T12:39:35.557Z,21.77
2023-03-03T12:42:12.519Z,20.77
2023-03-03T12:44:45.846Z,21.77
2023-03-03T12:47:22.273Z,22.93
2023-03-03T12:50:08.114Z,20.90
2023-03-03T12:52:45.384Z,19.27
2023-03-03T12:55:22.527Z,18.93
2023-03-03T12:58:00.278Z,19.77
2023-03-03T13:00:38.605Z,22.10
2023-03-03T13:03:15.160Z,19.00
2023-03-03T13:05:54.207Z,18.53
2023-03-03T13:08:33.487Z,27.07
2023-03-03T13:11:15.435Z,22.00
2023-03-03T13:13:50.436Z,22.37
2023-03-03T13:16:38.952Z,21.63
2023-03-03T13:19:13.678Z,22.70
2023-03-03T13:21:49.054Z,21.23
2023-03-03T13:24:23.026Z,19.60
2023-03-03T13:26:58.645Z,20.27
2023-03-03T13:29:28.854Z,21.97
2023-03-03T13:32:00.967Z,21.80
2023-03-03T13:34:40.404Z,24.67
2023-03-03T13:37:16.681Z,23.17
2023-03-03T13:39:57.123Z,21.83
2023-03-03T13:42:33.860Z,24.60
2023-03-03T13:45:08.226Z,23.23
2023-03-03T13:47:42.626Z,27.67
2023-03-03T13:50:21.117Z,20.63
2023-03-03T13:53:04.420Z,20.40
2023-03-03T13:55:37.669Z,22.33
2023-03-03T13:58:21.142Z,19.47
2023-03-03T14:00:58.995Z,22.00
2023-03-03T14:04:07.105Z,21.73
2023-03-03T14:06:37.858Z,21.30
2023-03-03T14:09:28.198Z,22.00
2023-03-03T14:12:03.956Z,26.43
2023-03-03T14:14:47.047Z,23.07
2023-03-03T14:17:26.022Z,19.67
2023-03-03T14:20:03.782Z,21.73
2023-03-03T14:22:43.541Z,16.30
2023-03-03T14:25:13.886Z,19.07
2023-03-03T14:27:55.321Z,16.70
2023-03-03T14:30:43.673Z,17.33
2023-03-03T14:33:21.799Z,18.43
2023-03-03T14:36:06.754Z,17.97
2023-03-03T14:38:46.724Z,17.77
2023-03-03T14:41:20.797Z,18.63
2023-03-03T14:43:59.775Z,17.43
2023-03-03T14:46:47.515Z,18.27
2023-03-03T14:49:29.697Z,18.50
2023-03-03T14:52:04.031Z,17.73
2023-03-03T14:54:39.872Z,15.53
2023-03-03T14:57:14.392Z,15.63
2023-03-03T15:00:00.592Z,16.87
2023-03-03T15:02:42.324Z,19.50
2023-03-03T15:05:20.633Z,17.03
2023-03-03T15:07:54.705Z,17.13
2023-03-03T15:10:35.254Z,15.90
2023-03-03T15:13:32.238Z,15.57
2023-03-03T15:16:10.220Z,16.47
2023-03-03T15:19:01.678Z,21.40
2023-03-03T15:21:32.985Z,16.80
2023-03-03T15:24:07.678Z,19.50
2023-03-03T15:26:45.659Z,18.13
2023-03-03T15:29:18.387Z,18.93
2023-03-03T15:31:53.529Z,18.47
2023-03-03T15:34:39.033Z,18.33
2023-03-03T15:37:19.415Z,18.87
2023-03-03T15:39:56.256Z,22.33
2023-03-03T15:42:35.693Z,19.33
2023-03-03T15:45:16.098Z,16.93
2023-03-03T15:48:04.082Z,17.53
2023-03-03T15:50:45.407Z,18.63
2023-03-03T15:53:27.617Z,19.83
2023-03-03T15:56:13.554Z,17.33
2023-03-03T15:58:59.625Z,18.13
2023-03-03T16:01:31.744Z,16.97
2023-03-03T16:04:02.339Z,17.80
2023-03-03T16:06:40.736Z,21.13
2023-03-03T16:09:21.278Z,19.33
2023-03-03T16:11:53.719Z,16.40
2023-03-03T16:14:45.751Z,18.57
2023-03-03T16:17:25.445Z,18.37
2023-03-03T16:20:04.286Z,15.57
2023-03-03T16:22:50.515Z,20.43
2023-03-03T16:25:35.718Z,18.93
2023-03-03T16:28:09.944Z,16.33
2023-03-03T16:30:47.749Z,21.37
2023-03-03T16:33:22.398Z,20.57
2023-03-03T16:35:59.810Z,18.30
2023-03-03T16:38:37.642Z,19.83
2023-03-03T16:41:12.140Z,20.07
2023-03-03T16:43:51.872Z,16.73
2023-03-03T16:46:33.086Z,20.10
2023-03-03T16:49:09.872Z,20.30
2023-03-03T16:51:48.793Z,18.90
2023-03-03T16:54:27.159Z,19.10
2023-03-03T16:57:10.088Z,22.07
2023-03-03T16:59:49.728Z,18.60
2023-03-03T17:02:44.888Z,19.17
2023-03-03T17:05:26.143Z,19.40
2023-03-03T17:08:06.607Z,20.37
2023-03-03T17:10:44.092Z,17.93
2023-03-03T17:13:46.184Z,21.27
2023-03-03T17:16:22.745Z,20.10
2023-03-03T17:19:06.596Z,19.63
2023-03-03T17:21:45.203Z,19.23
2023-03-03T17:24:24.625Z,21.43
2023-03-03T17:27:11.732Z,20.63
2023-03-03T17:29:56.349Z,19.67
2023-03-03T17:32:49.104Z,18.73
2023-03-03T17:35:28.591Z,17.03
2023-03-03T17:38:06.696Z,20.63
2023-03-03T17:40:56.735Z,19.10
2023-03-03T17:43:33.424Z,22.43
2023-03-03T17:46:05.971Z,19.57
2023-03-03T17:49:04.693Z,22.93
2023-03-03T17:51:57.162Z,20.83
2023-03-03T17:54:50.340Z,21.03
2023-03-03T17:57:32.932Z,23.00
2023-03-03T18:00:23.577Z,24.23
2023-03-03T18:03:18.943Z,18.53
2023-03-03T18:06:25.120Z,22.70
2023-03-03T18:09:18.841Z,22.27
2023-03-03T18:12:01.462Z,24.40
2023-03-03T18:14:58.414Z,21.87
2023-03-03T18:17:41.198Z,21.27
2023-03-03T18:20:45.200Z,21.87
2023-03-03T18:23:34.172Z,22.47
2023-03-03T18:26:04.291Z,26.07
2023-03-03T18:28:46.640Z,21.33
2023-03-03T18:31:25.594Z,20.47
2023-03-03T18:34:08.608Z,23.70
2023-03-03T18:36:54.139Z,22.93
2023-03-03T18:39:41.211Z,20.23
2023-03-03T18:42:30.572Z,22.60
2023-03-03T18:45:11.166Z,23.73
2023-03-03T18:48:01.361Z,19.97
2023-03-03T18:50:36.557Z,17.40
2023-03-03T18:53:17.380Z,23.97
2023-03-03T18:55:48.141Z,21.47
2023-03-03T18:58:38.186Z,20.97
2023-03-03T19:01:37.864Z,23.73
2023-03-03T19:04:25.261Z,20.87
2023-03-03T19:07:26.881Z,23.47
2023-03-03T19:10:01.855Z,24.37
2023-03-03T19:12:51.649Z,30.13
2023-03-03T19:15:45.789Z,23.30
2023-03-03T19:18:20.038Z,24.63
2023-03-03T19:20:54.259Z,24.17
2023-03-03T19:23:28.643Z,23.67
2023-03-03T19:26:32.288Z,24.60
2023-03-03T19:29:08.743Z,25.27
2023-03-03T19:31:45.511Z,24.80
2023-03-03T19:34:20.258Z,26.30
2023-03-03T19:37:08.982Z,23.87
2023-03-03T19:39:52.599Z,24.00
2023-03-03T19:42:33.964Z,23.83
2023-03-03T19:45:28.903Z,23.13
2023-03-03T19:48:08.586Z,24.43
2023-03-03T19:50:46.694Z,23.20
2023-03-03T19:53:26.505Z,26.23
2023-03-03T19:56:18.552Z,24.20
2023-03-03T19:58:57.793Z,24.97
2023-03-03T20:01:35.189Z,23.00
2023-03-03T20:04:32.136Z,22.70
2023-03-03T20:07:09.069Z,26.50
2023-03-03T20:09:45.213Z,23.07
2023-03-03T20:12:39.170Z,21.70
2023-03-03T20:15:15.202Z,28.43
2023-03-03T20:17:55.689Z,24.07
2023-03-03T20:20:41.421Z,25.50
2023-03-03T20:23:18.493Z,23.30
2023-03-03T20:25:50.368Z,21.17
2023-03-03T20:28:38.240Z,25.40
2023-03-03T20:31:12.973Z,24.60
2023-03-03T20:33:53.423Z,27.23
2023-03-03T20:36:31.824Z,24.60
2023-03-03T20:39:08.423Z,26.10
2023-03-03T20:41:53.813Z,28.00
2023-03-03T20:44:36.571Z,22.93
2023-03-03T20:47:11.812Z,23.00
2023-03-03T20:50:05.526Z,24.23
2023-03-03T20:52:43.236Z,25.30
2023-03-03T20:55:20.490Z,24.30
2023-03-03T20:57:54.978Z,20.63
2023-03-03T21:00:33.982Z,21.03
2023-03-03T21:03:12.141Z,19.93
2023-03-03T21:05:56.760Z,19.57
2023-03-03T21:08:42.725Z,21.63
2023-03-03T21:11:11.702Z,19.90
2023-03-03T21:13:41.474Z,21.37
2023-03-03T21:16:17.486Z,23.17
2023-03-03T21:18:58.302Z,22.77
2023-03-03T21:21:27.435Z,20.40
2023-03-03T21:23:55.585Z,19.60
2023-03-03T21:26:46.355Z,23.43
2023-03-03T21:29:22.372Z,23.40
2023-03-03T21:31:54.397Z,20.37
2023-03-03T21:34:26.469Z,20.50
2023-03-03T21:36:56.324Z,21.50
2023-03-03T21:39:27.847Z,20.77
2023-03-03T21:41:58.582Z,23.00
2023-03-03T21:44:35.200Z,24.97
2023-03-03T21:47:06.082Z,20.67
2023-03-03T21:49:34.946Z,18.53
2023-03-03T21:52:03.832Z,21.27
2023-03-03T21:54:32.062Z,20.33
2023-03-03T21:57:00.265Z,18.53
2023-03-03T21:59:28.522Z,19.43
2023-03-03T22:01:56.703Z,17.00
2023-03-03T22:04:26.506Z,23.53
2023-03-03T22:06:54.599Z,22.20
2023-03-03T22:09:22.933Z,25.03
2023-03-03T22:11:51.195Z,23.50
2023-03-03T22:14:19.366Z,24.17
2023-03-03T22:16:47.667Z,27.23
2023-03-03T22:19:15.900Z,27.03
2023-03-03T22:21:46.688Z,31.13
2023-03-03T22:24:15.095Z,25.17
2023-03-03T22:26:43.174Z,30.00
2023-03-03T22:29:11.260Z,32.00
2023-03-03T22:31:39.568Z,31.37
2023-03-03T22:34:07.765Z,32.10
2023-03-03T22:36:35.844Z,29.57
2023-03-03T22:39:05.431Z,29.70
2023-03-03T22:41:33.765Z,35.97
2023-03-03T22:44:02.030Z,35.87
2023-03-03T22:46:30.180Z,37.93
2023-03-03T22:48:58.418Z,39.17
2023-03-03T22:51:26.659Z,37.10
2023-03-03T22:53:54.842Z,32.40
2023-03-03T22:56:24.321Z,33.10
2023-03-03T22:58:52.614Z,32.23
2023-03-03T23:01:20.613Z,40.30
2023-03-03T23:03:50.177Z,36.63
2023-03-03T23:06:18.229Z,35.97
2023-03-03T23:08:46.216Z,40.20
2023-03-03T23:11:14.244Z,35.30
2023-03-03T23:13:43.668Z,34.90
2023-03-03T23:16:11.758Z,40.57
2023-03-03T23:18:39.922Z,35.47
2023-03-03T23:21:07.999Z,39.33
2023-03-03T23:23:36.071Z,34.00
2023-03-03T23:26:04.164Z,35.03
2023-03-03T23:28:32.299Z,40.60
2023-03-03T23:31:01.852Z,36.90
2023-03-03T23:33:29.991Z,40.47
2023-03-03T23:35:58.064Z,40.97
2023-03-03T23:38:26.103Z,44.67
2023-03-03T23:40:54.413Z,41.87
2023-03-03T23:43:22.753Z,38.10
2023-03-03T23:45:51.000Z,40.23
2023-03-03T23:48:21.469Z,40.90
2023-03-03T23:50:50.483Z,42.20
2023-03-03T23:53:19.506Z,37.97
2023-03-03T23:55:47.867Z,40.83
2023-03-03T23:58:16.148Z,39.07
